createdAt,value
2024-03-15T00:00:44.085Z,91.04
2024-03-15T00:05:44.645Z,91.05
2024-03-15T00:10:44.216Z,91.17
2024-03-15T00:15:43.197Z,91.07
2024-03-15T00:20:42.173Z,91.60
2024-03-15T00:25:42.651Z,93.56
2024-03-15T00:30:42.442Z,91.48
2024-03-15T00:35:43.576Z,93.63
2024-03-15T00:40:42.612Z,92.81
2024-03-15T00:45:41.480Z,93.94
2024-03-15T00:50:41.191Z,92.89
2024-03-15T00:55:40.081Z,94.60
2024-03-15T01:00:38.967Z,94.24
2024-03-15T01:05:37.783Z,93.04
2024-03-15T01:10:37.351Z,92.78
2024-03-15T01:15:36.260Z,94.81
2024-03-15T01:20:35.281Z,93.35
2024-03-15T01:25:37.109Z,92.83
2024-03-15T01:30:36.030Z,93.76
2024-03-15T01:35:34.951Z,93.12
2024-03-15T01:40:36.896Z,93.58
2024-03-15T01:45:35.833Z,92.96
2024-03-15T01:50:37.666Z,93.75
2024-03-15T01:55:36.625Z,93.86
2024-03-15T02:00:37.545Z,92.64
2024-03-15T02:05:36.469Z,94.21
2024-03-15T02:10:35.408Z,93.00
2024-03-15T02:15:35.882Z,93.44
2024-03-15T02:20:34.890Z,93.62
2024-03-15T02:25:33.842Z,94.30
2024-03-15T02:30:32.971Z,93.72
2024-03-15T02:35:33.842Z,92.76
2024-03-15T02:40:33.578Z,95.39
2024-03-15T02:45:32.433Z,94.60
2024-03-15T02:50:31.318Z,94.30
2024-03-15T02:55:30.156Z,92.71
2024-03-15T03:00:32.301Z,92.92
2024-03-15T03:05:31.894Z,92.62
2024-03-15T03:10:30.735Z,93.36
2024-03-15T03:15:30.588Z,93.43
2024-03-15T03:20:34.030Z,92.01
2024-03-15T03:25:34.640Z,93.25
2024-03-15T03:30:33.519Z,92.15
2024-03-15T03:35:32.334Z,90.70
2024-03-15T03:40:31.120Z,92.01
2024-03-15T03:45:30.161Z,91.72
2024-03-15T03:50:28.989Z,92.42
2024-03-15T03:55:27.889Z,91.58
2024-03-15T04:00:26.825Z,92.01
2024-03-15T04:05:25.787Z,91.63
2024-03-15T04:10:25.194Z,91.87
2024-03-15T04:15:29.348Z,91.80
2024-03-15T04:20:30.852Z,92.74
2024-03-15T04:25:30.068Z,91.76
2024-03-15T04:30:30.300Z,90.59
2024-03-15T04:35:31.074Z,90.73
2024-03-15T04:40:31.477Z,91.00
2024-03-15T04:45:30.324Z,91.26
2024-03-15T04:50:29.204Z,92.14
2024-03-15T04:55:30.108Z,91.84
2024-03-15T05:00:30.514Z,90.40
2024-03-15T05:05:29.346Z,91.03
2024-03-15T05:10:28.378Z,91.97
2024-03-15T05:15:27.363Z,91.28
2024-03-15T05:20:26.194Z,91.64
2024-03-15T05:25:25.086Z,91.79
2024-03-15T05:30:24.670Z,100.00
2024-03-15T05:35:24.050Z,86.32
2024-03-15T05:40:25.112Z,77.54
2024-03-15T05:45:24.291Z,82.99
2024-03-15T05:50:23.197Z,86.00
2024-03-15T05:55:22.603Z,86.79
2024-03-15T06:00:22.691Z,87.50
2024-03-15T06:05:23.464Z,87.99
2024-03-15T06:10:22.373Z,88.41
2024-03-15T06:15:24.073Z,87.75
2024-03-15T06:20:27.232Z,86.37
2024-03-15T06:25:26.886Z,87.45
2024-03-15T06:30:27.054Z,85.95
2024-03-15T06:35:29.006Z,86.49
2024-03-15T06:40:46.285Z,86.68
2024-03-15T06:45:51.366Z,85.61
2024-03-15T06:51:09.404Z,85.94
2024-03-15T06:56:08.401Z,85.74
2024-03-15T07:01:07.371Z,84.33
2024-03-15T07:06:06.508Z,83.49
2024-03-15T07:11:05.648Z,82.92
2024-03-15T07:16:04.662Z,83.32
2024-03-15T07:21:04.091Z,83.79
2024-03-15T07:26:04.072Z,83.44
2024-03-15T07:31:03.260Z,83.21
2024-03-15T07:36:06.932Z,82.40
2024-03-15T07:41:09.928Z,83.68
2024-03-15T07:46:10.743Z,81.67
2024-03-15T07:51:10.061Z,81.92
2024-03-15T07:56:10.617Z,80.25
2024-03-15T08:01:10.319Z,80.46
2024-03-15T08:06:11.259Z,78.42
2024-03-15T08:11:12.874Z,78.48
2024-03-15T08:16:24.606Z,77.37
2024-03-15T08:21:25.923Z,77.03
2024-03-15T08:26:25.014Z,76.49
2024-03-15T08:31:23.915Z,75.20
2024-03-15T08:36:25.503Z,74.04
2024-03-15T08:41:24.437Z,72.57
2024-03-15T08:46:23.302Z,73.16
2024-03-15T08:51:23.405Z,70.99
2024-03-15T08:56:22.592Z,70.82
2024-03-15T09:01:25.513Z,69.56
2024-03-15T09:06:24.566Z,69.35
2024-03-15T09:11:24.213Z,69.14
2024-03-15T09:16:23.403Z,69.50
2024-03-15T09:21:22.723Z,68.08
2024-03-15T09:26:21.971Z,67.85
2024-03-15T09:31:44.278Z,68.79
2024-03-15T09:36:45.015Z,67.04
2024-03-15T09:41:44.243Z,65.03
2024-03-15T09:46:43.740Z,64.85
2024-03-15T09:51:43.479Z,62.59
2024-03-15T09:56:45.881Z,61.19
2024-03-15T10:01:45.316Z,60.60
2024-03-15T10:06:44.412Z,59.86
2024-03-15T10:11:43.415Z,59.03
2024-03-15T10:16:44.024Z,57.83
2024-03-15T10:21:43.253Z,56.74
2024-03-15T10:26:42.310Z,57.22
2024-03-15T10:31:42.762Z,57.18
2024-03-15T10:36:42.192Z,56.53
2024-03-15T10:41:43.549Z,55.63
2024-03-15T10:46:43.069Z,55.12
2024-03-15T10:51:44.835Z,54.23
2024-03-15T10:56:43.762Z,53.50
2024-03-15T11:01:43.717Z,52.45
2024-03-15T11:06:46.764Z,53.54
2024-03-15T11:11:56.016Z,51.96
2024-03-15T11:17:02.266Z,51.04
2024-03-15T11:22:06.843Z,50.50
2024-03-15T11:27:05.758Z,49.24
2024-03-15T11:32:12.049Z,49.42
2024-03-15T11:37:15.283Z,48.26
2024-03-15T11:42:14.593Z,47.88
2024-03-15T11:47:14.935Z,48.07
2024-03-15T11:52:13.934Z,47.77
2024-03-15T11:57:12.868Z,47.40
2024-03-15T12:02:12.621Z,46.45
2024-03-15T12:07:12.129Z,45.90
2024-03-15T12:12:13.581Z,46.58
2024-03-15T12:17:15.295Z,44.58
2024-03-15T12:22:14.730Z,44.43
2024-03-15T12:27:14.284Z,42.47
2024-03-15T12:32:13.926Z,42.41
2024-03-15T12:37:13.791Z,40.11
2024-03-15T12:42:17.309Z,40.04
2024-03-15T12:47:16.388Z,41.47
2024-03-15T12:52:16.062Z,42.45
2024-03-15T12:57:16.673Z,41.40
2024-03-15T13:02:15.724Z,41.01
2024-03-15T13:07:14.719Z,41.86
2024-03-15T13:12:13.755Z,41.19
2024-03-15T13:17:13.346Z,39.93
2024-03-15T13:22:12.255Z,41.69
2024-03-15T13:27:15.879Z,41.55
2024-03-15T13:32:16.428Z,39.93
2024-03-15T13:37:16.123Z,40.17
2024-03-15T13:42:14.983Z,40.57
2024-03-15T13:47:13.968Z,41.51
2024-03-15T13:52:12.894Z,42.57
2024-03-15T13:57:13.196Z,43.07
2024-03-15T14:02:12.069Z,43.44
2024-03-15T14:07:11.105Z,43.92
2024-03-15T14:12:10.145Z,44.46
2024-03-15T14:17:09.020Z,43.95
2024-03-15T14:22:11.321Z,44.16
2024-03-15T14:27:10.053Z,43.49
2024-03-15T14:32:08.837Z,44.53
2024-03-15T14:37:10.857Z,43.89
2024-03-15T14:42:11.176Z,44.98
2024-03-15T14:47:10.311Z,49.85
2024-03-15T14:52:13.710Z,52.34
2024-03-15T14:57:12.486Z,52.15
2024-03-15T15:02:11.495Z,52.28
2024-03-15T15:07:10.642Z,51.19
2024-03-15T15:12:09.702Z,51.40
2024-03-15T15:17:08.650Z,50.85
2024-03-15T15:22:08.174Z,51.93
2024-03-15T15:27:07.163Z,52.49
2024-03-15T15:32:06.921Z,53.92
2024-03-15T15:37:07.059Z,54.28
2024-03-15T15:42:06.137Z,54.80
2024-03-15T15:47:05.280Z,54.86
2024-03-15T15:52:05.511Z,55.63
2024-03-15T15:57:04.696Z,59.38
2024-03-15T16:02:05.501Z,61.28
2024-03-15T16:07:04.692Z,61.79
2024-03-15T16:12:04.373Z,62.24
2024-03-15T16:17:03.266Z,62.05
2024-03-15T16:22:04.336Z,62.55
2024-03-15T16:27:03.320Z,62.42
2024-03-15T16:32:04.612Z,61.88
2024-03-15T16:37:05.546Z,61.98
2024-03-15T16:42:04.626Z,61.99
2024-03-15T16:47:05.216Z,62.03
2024-03-15T16:52:04.692Z,61.79
2024-03-15T16:57:03.537Z,63.57
2024-03-15T17:02:02.498Z,70.68
2024-03-15T17:07:01.496Z,74.31
2024-03-15T17:12:01.188Z,74.39
2024-03-15T17:17:00.687Z,74.21
2024-03-15T17:21:59.967Z,72.48
2024-03-15T17:26:58.838Z,72.36
2024-03-15T17:31:57.813Z,72.71
2024-03-15T17:36:56.704Z,71.75
2024-03-15T17:41:55.680Z,71.55
2024-03-15T17:46:54.539Z,71.91
2024-03-15T17:51:54.485Z,73.71
2024-03-15T17:56:53.434Z,74.80
2024-03-15T18:01:52.278Z,76.54
2024-03-15T18:06:51.445Z,77.52
2024-03-15T18:11:51.219Z,79.16
2024-03-15T18:16:50.093Z,77.03
2024-03-15T18:21:49.013Z,75.06
2024-03-15T18:26:48.398Z,75.22
2024-03-15T18:31:47.312Z,74.51
2024-03-15T18:36:46.916Z,73.53
2024-03-15T18:41:45.786Z,75.06
2024-03-15T18:46:44.650Z,74.77
2024-03-15T18:51:43.594Z,74.52
2024-03-15T18:56:44.633Z,74.53
2024-03-15T19:01:43.470Z,73.11
2024-03-15T19:06:42.380Z,73.29
2024-03-15T19:11:41.435Z,71.89
2024-03-15T19:16:40.316Z,72.88
2024-03-15T19:21:39.146Z,72.81
2024-03-15T19:26:37.984Z,72.20
2024-03-15T19:31:36.846Z,73.53
2024-03-15T19:36:35.804Z,73.42
2024-03-15T19:41:35.366Z,72.65
2024-03-15T19:46:35.162Z,72.04
2024-03-15T19:51:34.237Z,73.52
2024-03-15T19:56:33.267Z,74.27
2024-03-15T20:01:32.489Z,73.44
2024-03-15T20:06:31.684Z,73.91
2024-03-15T20:11:31.341Z,73.45
2024-03-15T20:16:32.159Z,73.28
2024-03-15T20:21:31.900Z,73.01
2024-03-15T20:26:31.680Z,72.13
2024-03-15T20:31:30.688Z,71.51
2024-03-15T20:36:29.521Z,72.04
2024-03-15T20:41:28.370Z,72.45
2024-03-15T20:46:27.451Z,74.21
2024-03-15T20:51:26.471Z,74.27
2024-03-15T20:56:28.282Z,72.85
2024-03-15T21:01:27.509Z,72.88
2024-03-15T21:06:31.500Z,73.77
2024-03-15T21:11:30.500Z,74.45
2024-03-15T21:16:29.306Z,74.62
2024-03-15T21:21:28.126Z,74.10
2024-03-15T21:26:29.187Z,73.89
2024-03-15T21:31:28.226Z,73.41
2024-03-15T21:36:27.511Z,73.86
2024-03-15T21:41:26.399Z,74.64
2024-03-15T21:46:33.572Z,74.12
2024-03-15T21:51:33.094Z,73.82
2024-03-15T21:56:32.070Z,73.58
2024-03-15T22:01:34.845Z,73.22
2024-03-15T22:06:40.954Z,73.43
2024-03-15T22:11:42.600Z,73.05
2024-03-15T22:16:41.448Z,73.97
2024-03-15T22:21:40.262Z,74.60
2024-03-15T22:26:39.151Z,74.45
2024-03-15T22:31:37.980Z,74.58
2024-03-15T22:36:36.811Z,73.89
2024-03-15T22:41:35.630Z,74.81
2024-03-15T22:46:34.421Z,74.39
2024-03-15T22:51:33.275Z,74.84
2024-03-15T22:56:33.389Z,74.25
2024-03-15T23:01:38.862Z,74.84
2024-03-15T23:06:38.215Z,74.01
2024-03-15T23:11:37.114Z,74.41
2024-03-15T23:16:37.675Z,75.35
2024-03-15T23:21:37.703Z,75.48
2024-03-15T23:26:37.894Z,75.70
2024-03-15T23:31:37.226Z,76.25
2024-03-15T23:36:36.088Z,76.40
2024-03-15T23:41:34.912Z,76.27
2024-03-15T23:46:33.736Z,76.43
2024-03-15T23:51:32.647Z,76.88
2024-03-15T23:56:31.535Z,77.00
